createdAt,value
2019-03-26T00:02:29.415Z,5.65
2019-03-26T00:07:32.517Z,7.28
2019-03-26T00:12:35.286Z,6.97
2019-03-26T00:17:38.193Z,4.17
2019-03-26T00:22:40.935Z,6.53
2019-03-26T00:27:43.672Z,5.03
2019-03-26T00:32:46.558Z,4.05
2019-03-26T00:37:49.185Z,5.40
2019-03-26T00:42:51.903Z,5.47
2019-03-26T00:47:54.517Z,7.87
2019-03-26T00:52:57.292Z,7.17
2019-03-26T00:58:01.702Z,3.85
2019-03-26T01:03:05.474Z,4.70
2019-03-26T01:08:08.384Z,8.55
2019-03-26T01:13:11.211Z,9.95
2019-03-26T01:18:13.890Z,4.78
2019-03-26T01:23:16.717Z,5.45
2019-03-26T01:28:19.426Z,6.87
2019-03-26T01:33:22.371Z,11.30
2019-03-26T01:38:25.018Z,6.40
2019-03-26T01:43:28.088Z,9.58
2019-03-26T01:48:30.761Z,8.38
2019-03-26T01:53:33.388Z,6.87
2019-03-26T01:58:36.075Z,6.55
2019-03-26T02:03:38.821Z,5.72
2019-03-26T02:08:41.445Z,7.33
2019-03-26T02:13:44.394Z,8.65
2019-03-26T02:18:47.074Z,5.15
2019-03-26T02:23:49.808Z,7.97
2019-03-26T02:28:52.782Z,9.95
2019-03-26T02:33:55.762Z,10.98
2019-03-26T02:38:58.404Z,6.22
2019-03-26T02:44:01.093Z,9.43
2019-03-26T02:49:03.773Z,5.95
2019-03-26T02:54:06.405Z,8.75
2019-03-26T02:59:09.025Z,7.40
2019-03-26T03:04:11.672Z,7.83
2019-03-26T03:09:14.265Z,6.97
2019-03-26T03:14:16.979Z,5.67
2019-03-26T03:19:19.733Z,10.45
2019-03-26T03:24:22.394Z,9.35
2019-03-26T03:29:25.070Z,9.68
2019-03-26T03:34:27.926Z,10.50
2019-03-26T03:39:30.729Z,12.13
2019-03-26T03:44:33.654Z,8.78
2019-03-26T03:49:36.595Z,6.20
2019-03-26T03:54:41.553Z,10.80
2019-03-26T03:59:45.440Z,9.70
2019-03-26T04:04:48.168Z,8.10
2019-03-26T04:09:50.845Z,10.82
2019-03-26T04:14:53.525Z,7.78
2019-03-26T04:19:56.202Z,7.87
2019-03-26T04:24:58.880Z,7.65
2019-03-26T04:30:01.874Z,9.40
2019-03-26T04:35:04.884Z,11.15
2019-03-26T04:40:07.798Z,6.72
2019-03-26T04:45:10.546Z,10.70
2019-03-26T04:50:13.287Z,15.90
2019-03-26T04:55:16.134Z,13.58
2019-03-26T05:00:19.068Z,14.35
2019-03-26T05:05:21.804Z,10.82
2019-03-26T05:10:24.462Z,6.95
2019-03-26T05:15:27.156Z,7.47
2019-03-26T05:20:29.955Z,16.85
2019-03-26T05:25:32.657Z,14.40
2019-03-26T05:30:35.308Z,10.58
2019-03-26T05:35:38.210Z,10.18
2019-03-26T05:40:40.846Z,9.63
2019-03-26T05:45:43.713Z,13.45
2019-03-26T05:50:46.384Z,11.15
2019-03-26T05:55:49.458Z,10.75
2019-03-26T06:00:52.155Z,11.80
2019-03-26T06:05:55.096Z,11.57
2019-03-26T06:10:57.774Z,11.45
2019-03-26T06:16:00.400Z,17.05
2019-03-26T06:21:03.340Z,12.85
2019-03-26T06:26:06.182Z,10.80
2019-03-26T06:31:08.904Z,17.52
2019-03-26T06:36:11.778Z,10.48
2019-03-26T06:41:14.462Z,13.45
2019-03-26T06:46:17.160Z,14.78
2019-03-26T06:51:20.140Z,11.30
2019-03-26T06:56:22.968Z,16.15
2019-03-26T07:01:25.969Z,14.38
2019-03-26T07:06:28.631Z,10.78
2019-03-26T07:11:31.293Z,12.65
2019-03-26T07:16:34.162Z,14.90
2019-03-26T07:21:49.075Z,15.83
2019-03-26T07:26:41.646Z,16.48
2019-03-26T07:31:44.430Z,16.60
2019-03-26T07:36:47.286Z,17.02
2019-03-26T07:41:50.310Z,17.82
2019-03-26T07:46:53.052Z,18.42
2019-03-26T07:51:55.619Z,16.82
2019-03-26T07:56:58.258Z,20.27
2019-03-26T08:02:01.001Z,16.23
2019-03-26T08:07:03.638Z,15.83
2019-03-26T08:12:06.507Z,17.30
2019-03-26T08:17:09.046Z,18.20
2019-03-26T08:22:13.068Z,17.05
2019-03-26T08:27:15.676Z,12.23
2019-03-26T08:32:18.278Z,15.80
2019-03-26T08:37:20.890Z,12.05
2019-03-26T08:42:23.770Z,12.55
2019-03-26T08:47:26.382Z,13.95
2019-03-26T08:52:28.977Z,14.10
2019-03-26T08:57:31.659Z,13.30
2019-03-26T09:02:34.246Z,10.98
2019-03-26T09:07:36.889Z,15.08
2019-03-26T09:12:39.916Z,9.45
2019-03-26T09:17:44.407Z,14.20
2019-03-26T09:22:47.183Z,14.23
2019-03-26T09:27:52.361Z,13.58
2019-03-26T09:32:54.317Z,13.48
2019-03-26T09:37:57.003Z,10.32
2019-03-26T09:42:59.702Z,14.47
2019-03-26T09:48:02.304Z,15.20
2019-03-26T09:53:04.908Z,12.07
2019-03-26T09:58:07.489Z,16.70
2019-03-26T10:03:10.138Z,13.05
2019-03-26T10:08:12.812Z,16.93
2019-03-26T10:13:15.494Z,15.78
2019-03-26T10:18:18.118Z,11.28
2019-03-26T10:23:20.876Z,14.63
2019-03-26T10:28:23.849Z,13.35
2019-03-26T10:33:26.494Z,10.13
2019-03-26T10:38:29.101Z,14.07
2019-03-26T10:43:31.842Z,13.13
2019-03-26T10:48:34.426Z,17.27
2019-03-26T10:53:37.253Z,19.10
2019-03-26T10:58:39.910Z,16.97
2019-03-26T11:03:42.903Z,24.70
2019-03-26T11:08:45.536Z,19.42
2019-03-26T11:13:48.104Z,21.10
2019-03-26T11:18:50.748Z,19.98
2019-03-26T11:23:53.462Z,17.52
2019-03-26T11:28:56.025Z,14.53
2019-03-26T11:33:58.884Z,16.73
2019-03-26T11:39:01.867Z,16.12
2019-03-26T11:44:04.982Z,18.17
2019-03-26T11:49:07.906Z,15.55
2019-03-26T11:54:10.538Z,17.62
2019-03-26T11:59:13.198Z,18.75
2019-03-26T12:04:15.963Z,18.25
2019-03-26T12:09:19.160Z,14.87
2019-03-26T12:14:21.962Z,16.82
2019-03-26T12:19:24.581Z,18.25
2019-03-26T12:24:27.232Z,16.32
2019-03-26T12:29:29.827Z,19.23
2019-03-26T12:34:38.559Z,21.10
2019-03-26T12:39:44.078Z,20.30
2019-03-26T12:44:46.038Z,18.25
2019-03-26T12:49:48.640Z,13.35
2019-03-26T12:54:53.548Z,14.90
2019-03-26T12:59:56.313Z,15.25
2019-03-26T13:04:59.113Z,17.15
2019-03-26T13:10:13.318Z,18.67
2019-03-26T13:15:08.385Z,18.40
2019-03-26T13:20:12.004Z,16.50
2019-03-26T13:25:14.702Z,16.37
2019-03-26T13:30:17.708Z,15.72
2019-03-26T13:35:20.700Z,15.43
2019-03-26T13:40:27.583Z,16.25
2019-03-26T13:45:27.852Z,13.10
2019-03-26T13:50:30.490Z,11.05
2019-03-26T13:55:33.065Z,8.85
2019-03-26T14:00:37.434Z,11.05
2019-03-26T14:05:39.997Z,8.75
2019-03-26T14:10:42.618Z,9.20
2019-03-26T14:15:45.472Z,11.20
2019-03-26T14:20:48.137Z,12.88
2019-03-26T14:25:50.851Z,8.60
2019-03-26T14:30:53.643Z,11.28
2019-03-26T14:35:56.346Z,8.48
2019-03-26T14:40:58.955Z,7.78
2019-03-26T14:46:01.621Z,10.38
2019-03-26T14:51:04.262Z,6.25
2019-03-26T14:56:06.869Z,8.33
2019-03-26T15:01:09.613Z,6.97
2019-03-26T15:06:12.229Z,11.45
2019-03-26T15:11:14.777Z,9.08
2019-03-26T15:16:17.403Z,7.28
2019-03-26T15:21:19.989Z,7.53
2019-03-26T15:26:22.878Z,13.25
2019-03-26T15:31:25.441Z,8.45
2019-03-26T15:36:28.107Z,7.80
2019-03-26T15:41:30.789Z,11.05
2019-03-26T15:46:36.270Z,8.70
2019-03-26T15:51:37.907Z,9.53
2019-03-26T15:56:40.514Z,11.97
2019-03-26T16:01:43.281Z,12.13
2019-03-26T16:06:45.828Z,13.75
2019-03-26T16:11:48.461Z,10.82
2019-03-26T16:16:51.290Z,15.15
2019-03-26T16:21:54.139Z,18.25
2019-03-26T16:26:56.739Z,17.23
2019-03-26T16:31:59.386Z,15.83
2019-03-26T16:37:02.001Z,13.48
2019-03-26T16:42:04.715Z,10.35
2019-03-26T16:47:09.933Z,11.12
2019-03-26T16:52:12.809Z,10.58
2019-03-26T16:57:15.395Z,18.92
2019-03-26T17:02:18.295Z,14.05
2019-03-26T17:07:20.982Z,15.90
2019-03-26T17:12:23.678Z,10.23
2019-03-26T17:17:26.275Z,12.98
2019-03-26T17:22:29.139Z,12.43
2019-03-26T17:27:31.767Z,11.88
2019-03-26T17:32:34.388Z,12.43
2019-03-26T17:37:36.997Z,12.82
2019-03-26T17:42:39.602Z,15.63
2019-03-26T17:47:42.215Z,10.88
2019-03-26T17:52:45.854Z,12.98
2019-03-26T17:57:48.465Z,14.45
2019-03-26T18:02:51.048Z,14.85
2019-03-26T18:07:54.821Z,15.18
2019-03-26T18:12:57.416Z,17.40
2019-03-26T18:18:00.021Z,14.15
2019-03-26T18:23:02.616Z,14.73
2019-03-26T18:28:05.424Z,16.90
2019-03-26T18:33:08.134Z,13.85
2019-03-26T18:38:14.745Z,12.68
2019-03-26T18:43:16.396Z,17.00
2019-03-26T18:48:19.348Z,19.65
2019-03-26T18:53:22.029Z,10.93
2019-03-26T18:58:24.716Z,13.60
2019-03-26T19:03:27.663Z,13.95
2019-03-26T19:08:30.494Z,15.13
2019-03-26T19:13:33.129Z,14.38
2019-03-26T19:18:35.829Z,17.45
2019-03-26T19:23:38.507Z,18.20
2019-03-26T19:28:41.179Z,11.40
2019-03-26T19:33:43.856Z,14.60
2019-03-26T19:38:46.421Z,18.25
2019-03-26T19:43:49.251Z,18.02
2019-03-26T19:48:51.891Z,16.87
2019-03-26T19:53:54.531Z,16.20
2019-03-26T19:58:57.136Z,18.98
2019-03-26T20:03:59.820Z,19.15
2019-03-26T20:09:04.050Z,23.60
2019-03-26T20:14:06.649Z,22.37
2019-03-26T20:19:09.734Z,23.05
2019-03-26T20:24:12.443Z,18.35
2019-03-26T20:29:16.053Z,21.82
2019-03-26T20:34:18.690Z,28.10
2019-03-26T20:39:21.608Z,22.67
2019-03-26T20:44:24.449Z,25.95
2019-03-26T20:49:27.097Z,21.75
2019-03-26T20:54:29.772Z,23.55
2019-03-26T20:59:32.700Z,25.08
2019-03-26T21:04:35.357Z,32.10
2019-03-26T21:09:38.052Z,25.10
2019-03-26T21:14:40.955Z,27.37
2019-03-26T21:19:43.658Z,25.55
2019-03-26T21:24:46.603Z,29.32
2019-03-26T21:29:49.589Z,24.43
2019-03-26T21:34:56.416Z,26.00
2019-03-26T21:40:06.139Z,26.90
2019-03-26T21:45:09.515Z,28.38
2019-03-26T21:50:12.772Z,32.53
2019-03-26T21:55:15.556Z,27.27
2019-03-26T22:00:18.558Z,31.55
2019-03-26T22:05:21.291Z,35.05
2019-03-26T22:10:24.160Z,34.15
2019-03-26T22:15:27.981Z,34.70
2019-03-26T22:20:30.557Z,36.68
2019-03-26T22:25:33.186Z,31.50
2019-03-26T22:30:41.632Z,36.50
2019-03-26T22:35:44.402Z,36.03
2019-03-26T22:40:47.032Z,35.28
2019-03-26T22:45:49.641Z,32.10
2019-03-26T22:50:52.286Z,37.45
2019-03-26T22:55:55.398Z,29.92
2019-03-26T23:00:58.012Z,31.80
2019-03-26T23:06:01.044Z,36.40
2019-03-26T23:11:03.851Z,27.80
2019-03-26T23:16:06.616Z,35.98
2019-03-26T23:21:09.288Z,30.43
2019-03-26T23:26:11.851Z,30.62
2019-03-26T23:31:14.750Z,30.35
2019-03-26T23:36:17.479Z,38.48
2019-03-26T23:41:20.165Z,26.20
2019-03-26T23:46:22.941Z,30.30
2019-03-26T23:51:25.546Z,27.50
2019-03-26T23:56:29.162Z,30.05
